Aeroporto :
LOGIN :

Iscrizione | Disclaimer

   EN    FR    IT 

 










Sommario :    VFR   VFR Marginale   IFR   IFR Intensivo   IFR Molto Intensivo
Visibilità : 
Base nubi : 
>= 8 km
>= 3000ft
5 / 8 km
1000 / 3000 ft
1500m / 5 km
500 / 1000 ft
800 / 1500m
200 / 500 ft
< 800m
< 200 ft
Simboli :   Temporali  Nebbia  Neve Forte  Precipitazioni Forti  Vento > 20 kt
SIGMETs :   Varie  Temporali  Ghiacco  Turbolenza  Onda orograficha  Ceneri Vulcaniche






- Altitudine del aeroporto : 506 ft
- Codice IATA : GOT


ESGG - Landvetter

ULTIMO METAR :
  • 301950Z 03002KT CAVOK M00/M11 Q1029 R03/09//95

METARs OBSOLETI :
  • 301920Z VRB01KT CAVOK M00/M11 Q1029 R03/09//95
  • 301850Z 05004KT CAVOK M01/M11 Q1029 R03/09//95
  • 301820Z 03004KT CAVOK M01/M12 Q1028 R03/09//95
  • 301750Z 03006KT CAVOK M00/M11 Q1028 R03/09//95

TAF TAF ESGG
Valido dal 30 a 18 ore il 31 a 18 ore UTC


301730Z 3018/3118 01015KT CAVOK
BECMG 3018/3020 02002KT
BECMG 3106/3108 24010KT
PROB40 3116/3118 BKN012



MetMap, La meteo Aeronautica in un colpo d'occhio ! - Copyright ORBIFLY Dicembre 2007 - Disclaimer

ORBIFLY MET'MAP TEAM :

Programmazione e sviluppo : Alexandra Zaïnal
Concezione : Baudouin d'Aumeries
Aiuto per la programmazione : Marc-Olivier Méhu
Supporto tecnico e logistico : Manuel Goepfert
Aiuto per la traduzione : Arnaldo La Scala

Contatto : metmap@orbifly.com




FONTI E CREDITI :

   NOAA